Toyo Eagle — H3LY — position and weather

sailwx.info

Track history (hours):
 
Tides and Currents Weather Stations Pressure Air Temp Water Temp Dewpoint Dewpoint Depression Visibility Wind Speed Wind Dir Waves Ship Positions

Toyo Eagle

Last reported at 2016-Nov-20 04:25 UTC. Time now 2016-Dec-07 08:38 UTC.
Position N 01°21' E 104°03'.
Warning: this ship's position is 17 days out of date.

Length 108 m; draft 4.8 m.

Type: Cargo ship. MMSI: 355327000.

Date/timePositionNaut miles runAvg speedWind from/ knotsBaromVisibWave heightAir tempDewpointWater temp
2016-Nov-20 04:25N 01°21' E 104°03'8 8.8
2016-Nov-20 03:33N 01°24' E 103°56'3 1.3
2016-Nov-20 01:33N 01°26' E 103°54'0 0.0
2016-Nov-19 23:30N 01°26' E 103°54'0 0.0
2016-Nov-19 22:33N 01°26' E 103°54'0 0.0
2016-Nov-19 20:21N 01°26' E 103°54'0 0.0
2016-Nov-19 17:33N 01°26' E 103°54'0 0.0
2016-Nov-19 16:33N 01°26' E 103°54'0 0.0
2016-Nov-19 14:09N 01°26' E 103°54'0 0.0
2016-Nov-19 11:30N 01°26' E 103°54'0 0.0
2016-Nov-19 09:30N 01°26' E 103°54'0 0.0
2016-Nov-19 07:33N 01°26' E 103°54'0 0.0
2016-Nov-19 05:33N 01°26' E 103°54'0 0.0
2016-Nov-19 04:33N 01°26' E 103°54'0 0.0
2016-Nov-19 02:09N 01°26' E 103°54'0 0.0
2016-Nov-19 01:30N 01°26' E 103°54'0 0.0
2016-Nov-19 00:30N 01°26' E 103°54'0 0.0
2016-Nov-18 23:33N 01°26' E 103°54'3 1.0
2016-Nov-18 20:33N 01°24' E 103°57'10 0.7
2016-Nov-18 05:30N 01°20' E 104°06'  
Track history (hours):
 
Tides and Currents Weather Stations Pressure Air Temp Water Temp Dewpoint Dewpoint Depression Visibility Wind Speed Wind Dir Waves Ship Positions

Toyo Eagle

Last reported at 2016-Nov-20 04:25 UTC. Time now 2016-Dec-07 08:38 UTC.
Position N 01°21' E 104°03'.
Warning: this ship's position is 17 days out of date.

Length 108 m; draft 4.8 m.

Type: Cargo ship. MMSI: 355327000.

Date/timePositionNaut miles runAvg speedWind from/ knotsBaromVisibWave heightAir tempDewpointWater temp
2016-Nov-20 04:25N 01°21' E 104°03'8 8.8
2016-Nov-20 03:33N 01°24' E 103°56'3 1.3
2016-Nov-20 01:33N 01°26' E 103°54'0 0.0
2016-Nov-19 23:30N 01°26' E 103°54'0 0.0
2016-Nov-19 22:33N 01°26' E 103°54'0 0.0
2016-Nov-19 20:21N 01°26' E 103°54'0 0.0
2016-Nov-19 17:33N 01°26' E 103°54'0 0.0
2016-Nov-19 16:33N 01°26' E 103°54'0 0.0
2016-Nov-19 14:09N 01°26' E 103°54'0 0.0
2016-Nov-19 11:30N 01°26' E 103°54'0 0.0
2016-Nov-19 09:30N 01°26' E 103°54'0 0.0
2016-Nov-19 07:33N 01°26' E 103°54'0 0.0
2016-Nov-19 05:33N 01°26' E 103°54'0 0.0
2016-Nov-19 04:33N 01°26' E 103°54'0 0.0
2016-Nov-19 02:09N 01°26' E 103°54'0 0.0
2016-Nov-19 01:30N 01°26' E 103°54'0 0.0
2016-Nov-19 00:30N 01°26' E 103°54'0 0.0
2016-Nov-18 23:33N 01°26' E 103°54'3 1.0
2016-Nov-18 20:33N 01°24' E 103°57'10 0.7
2016-Nov-18 05:30N 01°20' E 104°06'  

Dump ship's entire track history